Time;durP1;ratioP1;P1;durP2;ratioP2;P2;SDS_P1;SDS_P2;PMS_P1;PMS_P2;Temp;Humidity;BMP_temperature;BMP_pressure;BME280_temperature;BME280_humidity;BME280_pressure;Samples;Min_cycle;Max_cycle;Signal;HPM_P1;HPM_P2
2023/10/16 00:00:29;;;;;;;7.40;4.17;;;;;;;7.57;100.00;102325.81;5229739;28;20030;-81
2023/10/16 00:02:56;;;;;;;11.67;4.87;;;;;;;7.44;100.00;102279.16;5234150;28;20033;-81
2023/10/16 00:05:35;;;;;;;7.47;4.27;;;;;;;7.58;100.00;102301.44;5234018;28;20021;-81
2023/10/16 00:08:07;;;;;;;11.10;4.80;;;;;;;7.22;100.00;102279.66;5234227;28;20052;-81
2023/10/16 00:11:40;;;;;;;8.03;4.60;;;;;;;7.73;100.00;102327.16;5232934;28;20021;-80
2023/10/16 00:14:59;;;;;;;10.10;4.20;;;;;;;7.90;100.00;102325.91;5223250;28;20032;-81
2023/10/16 00:17:32;;;;;;;8.20;4.30;;;;;;;7.35;100.00;102253.31;5219422;28;20485;-82
2023/10/16 00:20:16;;;;;;;7.35;4.45;;;;;;;7.37;100.00;102283.66;5222895;28;20044;-81
2023/10/16 00:23:15;;;;;;;10.07;4.57;;;;;;;7.57;100.00;102284.09;5247668;28;20112;-81
2023/10/16 00:26:00;;;;;;;7.53;4.47;;;;;;;7.61;100.00;102315.25;5232780;28;20673;-81
2023/10/16 00:28:35;;;;;;;10.18;4.13;;;;;;;7.35;100.00;102268.94;5249642;28;20136;-81
2023/10/16 00:31:37;;;;;;;9.43;4.73;;;;;;;7.57;100.00;102289.31;5233312;28;20128;-81
2023/10/16 00:34:09;;;;;;;7.90;4.30;;;;;;;7.41;100.00;102275.78;5233145;28;20480;-81
2023/10/16 00:36:44;;;;;;;11.03;4.23;;;;;;;7.77;100.00;102306.25;5218719;28;20049;-81
2023/10/16 00:39:17;;;;;;;14.60;5.93;;;;;;;7.84;100.00;102299.94;5231515;28;20112;-81
2023/10/16 00:41:51;;;;;;;9.60;4.60;;;;;;;7.77;100.00;102295.81;5233429;28;20651;-81
2023/10/16 00:44:36;;;;;;;7.75;5.20;;;;;;;7.73;100.00;102275.00;5233570;28;20465;-81
2023/10/16 00:47:09;;;;;;;;;;;;;;;8.33;100.00;102323.06;5232057;28;20028;-81
2023/10/16 00:49:43;;;;;;;7.33;4.63;;;;;;;7.54;100.00;102251.13;5256796;28;19913;-81
2023/10/16 00:52:18;;;;;;;9.02;4.75;;;;;;;7.57;100.00;102263.25;5232121;28;20064;-81
2023/10/16 00:54:56;;;;;;;10.53;4.47;;;;;;;7.32;100.00;102246.44;5233439;28;20521;-81
2023/10/16 00:57:30;;;;;;;7.63;4.67;;;;;;;7.50;100.00;102252.94;5253159;28;20033;-81
2023/10/16 01:00:12;;;;;;;8.55;4.28;;;;;;;7.49;100.00;102274.69;5252578;28;20044;-80
2023/10/16 01:02:43;;;;;;;10.07;4.90;;;;;;;7.49;100.00;102255.59;5237082;28;20021;-81
2023/10/16 01:05:23;;;;;;;8.87;4.10;;;;;;;7.35;100.00;102279.38;5236258;28;20030;-80
2023/10/16 01:07:54;;;;;;;8.13;4.17;;;;;;;7.63;100.00;102292.63;5233166;28;20459;-80
2023/10/16 01:10:27;;;;;;;8.73;5.03;;;;;;;7.81;100.00;102313.06;5235923;28;20021;-80
2023/10/16 01:13:01;;;;;;;9.10;4.60;;;;;;;7.50;100.00;102276.41;5250799;28;20022;-80
2023/10/16 01:15:33;;;;;;;6.83;4.50;;;;;;;7.61;100.00;102281.38;5236483;28;20079;-80
2023/10/16 01:18:06;;;;;;;8.63;4.60;;;;;;;7.67;100.00;102297.75;5236465;28;20021;-81
2023/10/16 01:20:38;;;;;;;8.53;5.27;;;;;;;7.74;100.00;102301.94;5237299;28;20021;-80
2023/10/16 01:23:09;;;;;;;7.33;4.37;;;;;;;7.37;100.00;102269.78;5236142;28;20025;-80
2023/10/16 01:25:40;;;;;;;8.83;5.00;;;;;;;7.37;100.00;102251.53;5251997;28;20112;-80
2023/10/16 01:28:15;;;;;;;7.20;5.07;;;;;;;7.45;100.00;102244.38;5239924;28;20021;-80
2023/10/16 01:30:49;;;;;;;;;;;;;;;8.11;100.00;102290.59;5247327;28;20080;-80
2023/10/16 01:33:23;;;;;;;7.17;4.80;;;;;;;7.61;100.00;102260.50;5235117;28;19919;-81
2023/10/16 01:35:54;;;;;;;8.03;5.03;;;;;;;7.29;100.00;102251.72;5243528;28;20036;-80
2023/10/16 01:38:27;;;;;;;5.83;4.70;;;;;;;7.59;100.00;102277.09;5241311;28;20037;-80
2023/10/16 01:41:15;;;;;;;7.83;4.37;;;;;;;7.46;100.00;102246.09;5243419;28;20041;-82
2023/10/16 01:43:46;;;;;;;10.50;5.30;;;;;;;7.71;100.00;102283.75;5238562;28;20056;-81
2023/10/16 01:46:18;;;;;;;7.87;4.90;;;;;;;7.60;100.00;102258.81;5236869;28;20049;-81
2023/10/16 01:48:50;;;;;;;8.77;4.70;;;;;;;7.61;100.00;102264.88;5235461;28;20032;-81
2023/10/16 01:51:22;;;;;;;8.40;4.87;;;;;;;7.51;100.00;102245.97;5234796;28;20051;-82
2023/10/16 01:53:57;;;;;;;12.60;5.97;;;;;;;7.69;100.00;102269.91;5251444;28;20025;-82
2023/10/16 01:56:28;;;;;;;7.18;5.03;;;;;;;7.59;100.00;102258.84;5251374;28;20059;-82
2023/10/16 01:59:01;;;;;;;11.90;5.60;;;;;;;7.31;100.00;102204.78;5235302;28;20058;-81
2023/10/16 02:01:33;;;;;;;13.73;5.73;;;;;;;7.45;100.00;102227.91;5252589;28;20021;-82
2023/10/16 02:04:06;;;;;;;15.50;6.13;;;;;;;7.76;100.00;102279.28;5235595;28;20078;-81
2023/10/16 02:06:40;;;;;;;10.27;5.07;;;;;;;7.78;100.00;102266.22;5251652;28;20037;-81
2023/10/16 02:09:13;;;;;;;10.65;5.38;;;;;;;7.57;100.00;102237.16;5221211;28;20047;-81
2023/10/16 02:11:44;;;;;;;9.57;5.10;;;;;;;7.65;100.00;102250.84;5236443;28;20057;-81
2023/10/16 02:14:20;;;;;;;11.50;5.43;;;;;;;7.65;100.00;102263.91;5236030;28;20048;-83
2023/10/16 02:16:52;;;;;;;8.93;5.60;;;;;;;7.55;100.00;102259.81;5249267;28;20045;-82
2023/10/16 02:19:25;;;;;;;11.57;5.43;;;;;;;7.46;100.00;102240.88;5222343;28;20060;-82
2023/10/16 02:21:58;;;;;;;9.63;5.53;;;;;;;7.58;100.00;102259.72;5236617;28;20014;-82
2023/10/16 02:24:31;;;;;;;12.03;6.50;;;;;;;7.35;100.00;102232.44;5233769;28;20026;-82
2023/10/16 02:27:09;;;;;;;11.90;5.43;;;;;;;7.08;100.00;102203.56;5251962;28;20018;-82
2023/10/16 02:29:49;;;;;;;8.83;5.30;;;;;;;7.17;100.00;102228.53;5222371;28;20464;-81
2023/10/16 02:32:23;;;;;;;8.20;5.30;;;;;;;7.31;100.00;102275.13;5229460;28;20069;-82
2023/10/16 02:34:55;;;;;;;11.02;6.03;;;;;;;6.84;100.00;102206.66;5234290;28;20075;-81
2023/10/16 02:37:27;;;;;;;8.47;5.60;;;;;;;6.89;100.00;102220.44;5234476;28;20029;-82
2023/10/16 02:39:58;;;;;;;11.23;5.33;;;;;;;6.79;100.00;102187.69;5237945;28;20036;-82
2023/10/16 02:42:30;;;;;;;9.07;5.37;;;;;;;7.19;100.00;102243.25;5234073;28;20017;-82
2023/10/16 02:45:02;;;;;;;8.53;5.53;;;;;;;6.95;100.00;102222.06;5235954;28;20029;-81
2023/10/16 02:47:40;;;;;;;8.93;5.13;;;;;;;6.95;100.00;102252.47;5235763;28;20112;-81
2023/10/16 02:50:14;;;;;;;9.63;5.73;;;;;;;7.08;100.00;102233.09;5233760;28;20078;-81
2023/10/16 02:52:48;;;;;;;8.35;5.50;;;;;;;6.89;100.00;102215.22;5234838;28;20017;-81
2023/10/16 02:55:19;;;;;;;8.57;5.90;;;;;;;7.10;100.00;102217.41;5232840;28;20061;-80
2023/10/16 02:57:50;;;;;;;6.80;5.47;;;;;;;7.23;100.00;102270.94;5234031;28;20507;-81
2023/10/16 03:00:33;;;;;;;9.30;6.00;;;;;;;7.10;100.00;102222.63;5232536;28;20475;-80
2023/10/16 03:03:07;;;;;;;13.27;6.40;;;;;;;7.32;100.00;102261.19;5235286;28;20026;-81
2023/10/16 03:05:38;;;;;;;9.67;6.17;;;;;;;7.29;100.00;102243.91;5226596;28;20029;-80
2023/10/16 03:08:12;;;;;;;8.30;5.60;;;;;;;7.20;100.00;102226.72;5231860;28;20092;-81
2023/10/16 03:10:45;;;;;;;8.90;5.65;;;;;;;7.40;100.00;102250.59;5249275;28;20120;-80
2023/10/16 03:13:18;;;;;;;11.33;7.50;;;;;;;7.14;100.00;102219.03;5233402;28;20452;-81
2023/10/16 03:15:57;;;;;;;10.17;6.40;;;;;;;7.29;100.00;102249.13;5249516;28;20033;-81
2023/10/16 03:18:29;;;;;;;8.47;6.00;;;;;;;7.22;100.00;102242.31;5232412;28;20089;-80
2023/10/16 03:21:26;;;;;;;8.53;6.33;;;;;;;7.07;100.00;102213.13;5233495;28;20105;-80
2023/10/16 03:23:58;;;;;;;11.20;6.50;;;;;;;7.08;100.00;102200.94;5229506;28;20044;-80
2023/10/16 03:26:30;;;;;;;9.03;5.80;;;;;;;7.18;100.00;102245.88;5232138;28;20039;-81
2023/10/16 03:29:05;;;;;;;10.70;6.10;;;;;;;6.68;100.00;102202.69;5231779;28;20116;-80
2023/10/16 03:31:39;;;;;;;11.13;5.43;;;;;;;6.89;100.00;102249.09;5234238;28;20065;-81
2023/10/16 03:34:13;;;;;;;10.07;5.70;;;;;;;6.96;100.00;102246.38;5233773;28;20028;-81
2023/10/16 03:36:45;;;;;;;10.02;6.20;;;;;;;6.91;100.00;102251.69;5243053;28;20425;-81
2023/10/16 03:39:19;;;;;;;9.63;6.07;;;;;;;6.64;100.00;102207.97;5233713;28;20119;-81
2023/10/16 03:41:50;;;;;;;8.02;6.13;;;;;;;6.61;100.00;102202.84;5233822;28;20053;-81
2023/10/16 03:44:24;;;;;;;9.90;6.47;;;;;;;6.89;100.00;102263.88;5233691;28;20784;-80
2023/10/16 03:46:56;;;;;;;11.37;6.47;;;;;;;6.87;100.00;102253.50;5248628;28;20017;-81
2023/10/16 03:49:29;;;;;;;10.20;7.17;;;;;;;6.90;100.00;102252.56;5232679;28;20033;-81
2023/10/16 03:52:02;;;;;;;6.83;5.90;;;;;;;6.76;100.00;102234.63;5232154;28;20028;-81
2023/10/16 03:54:39;;;;;;;10.47;6.17;;;;;;;6.72;100.00;102227.78;5226077;28;20033;-81
2023/10/16 03:57:11;;;;;;;11.50;6.37;;;;;;;6.84;100.00;102253.53;5233754;28;20156;-81
2023/10/16 03:59:43;;;;;;;8.10;5.93;;;;;;;6.74;100.00;102218.16;5234462;28;20104;-81
2023/10/16 04:02:22;;;;;;;11.63;6.33;;;;;;;6.74;100.00;102200.81;5232629;28;20017;-81
2023/10/16 04:04:54;;;;;;;9.07;6.63;;;;;;;6.71;100.00;102226.94;5229203;28;20029;-81
2023/10/16 04:07:26;;;;;;;9.13;6.83;;;;;;;6.44;100.00;102203.16;5231673;28;20669;-81
2023/10/16 04:10:14;;;;;;;10.03;5.63;;;;;;;6.68;100.00;102231.34;5233420;28;20029;-81
2023/10/16 04:12:51;;;;;;;7.57;6.17;;;;;;;6.51;100.00;102207.34;5221201;28;20053;-81
2023/10/16 04:26:33;;;;;;;11.30;6.03;;;;;;;6.68;100.00;102208.78;5226504;28;20035;-81
2023/10/16 04:31:45;;;;;;;8.87;6.30;;;;;;;6.71;100.00;102226.94;5233580;28;20033;-81
2023/10/16 04:37:49;;;;;;;11.13;6.07;;;;;;;6.71;100.00;102216.50;5233729;28;20376;-81
2023/10/16 04:48:06;;;;;;;11.60;6.60;;;;;;;6.27;100.00;102183.56;5233389;28;20034;-81
2023/10/16 04:50:39;;;;;;;8.97;5.90;;;;;;;6.39;100.00;102189.38;5232810;28;20033;-81
2023/10/16 04:53:13;;;;;;;8.73;5.97;;;;;;;6.39;100.00;102190.25;5246529;28;20806;-81
2023/10/16 06:14:20;;;;;;;9.33;6.40;;;;;;;7.35;100.00;102206.38;5235690;28;20037;-80
2023/10/16 06:16:54;;;;;;;11.93;7.37;;;;;;;7.15;100.00;102184.28;5234633;28;20021;-80
2023/10/16 06:19:26;;;;;;;10.82;6.95;;;;;;;7.20;100.00;102182.44;5214731;28;20517;-81
2023/10/16 06:21:59;;;;;;;10.23;6.47;;;;;;;7.36;100.00;102210.72;5232860;28;20120;-81
2023/10/16 06:24:44;;;;;;;12.67;7.07;;;;;;;7.37;100.00;102207.22;5234462;28;20065;-81
2023/10/16 06:27:22;;;;;;;11.17;7.13;;;;;;;7.04;100.00;102181.06;5252247;28;20036;-80
2023/10/16 06:29:53;;;;;;;11.17;6.57;;;;;;;7.16;100.00;102188.59;5237916;28;20080;-81
2023/10/16 06:32:26;;;;;;;9.77;7.03;;;;;;;7.16;100.00;102196.41;5236967;28;20060;-81
2023/10/16 06:34:58;;;;;;;10.60;6.10;;;;;;;6.97;100.00;102170.78;5250374;28;20044;-79
2023/10/16 06:37:31;;;;;;;11.57;7.23;;;;;;;7.21;100.00;102211.97;5242304;28;20025;-80
2023/10/16 06:40:05;;;;;;;14.57;7.77;;;;;;;7.00;100.00;102155.09;5233460;28;20022;-80
2023/10/16 06:42:36;;;;;;;11.47;6.73;;;;;;;7.04;100.00;102153.28;5233669;28;20022;-81
2023/10/16 06:45:08;;;;;;;8.53;6.67;;;;;;;6.98;100.00;102156.88;5235077;28;20026;-81
2023/10/16 06:47:47;;;;;;;12.70;6.73;;;;;;;7.35;100.00;102198.56;5233776;28;20499;-79
2023/10/16 06:53:02;;;;;;;16.43;8.57;;;;;;;7.20;100.00;102177.22;5233356;28;20609;-80
2023/10/16 06:55:34;;;;;;;11.53;7.60;;;;;;;7.39;100.00;102210.66;5235218;28;20032;-81
2023/10/16 06:58:05;;;;;;;12.63;7.50;;;;;;;7.16;100.00;102183.38;5236980;28;20457;-81
2023/10/16 07:00:38;;;;;;;11.63;6.93;;;;;;;7.24;100.00;102178.84;5231951;28;20139;-81
2023/10/16 07:03:13;;;;;;;10.63;7.43;;;;;;;7.30;100.00;102179.59;5235907;28;20017;-81
2023/10/16 07:05:48;;;;;;;8.90;7.17;;;;;;;7.33;100.00;102176.94;5232016;28;20041;-79
2023/10/16 07:08:20;;;;;;;8.73;6.65;;;;;;;7.52;100.00;102221.66;5230559;28;20052;-80
2023/10/16 07:11:03;;;;;;;10.47;7.20;;;;;;;7.51;100.00;102204.28;5234356;28;20065;-80
2023/10/16 07:13:38;;;;;;;13.77;7.67;;;;;;;7.53;100.00;102210.31;5229861;28;20806;-77
2023/10/16 07:16:10;;;;;;;15.47;7.00;;;;;;;7.59;100.00;102209.31;5231114;28;20223;-78
2023/10/16 07:18:43;;;;;;;9.90;7.03;;;;;;;7.62;100.00;102217.91;5231664;28;20485;-78
2023/10/16 07:21:17;;;;;;;10.60;7.30;;;;;;;7.46;100.00;102188.75;5232346;28;20705;-78
2023/10/16 07:23:53;;;;;;;11.70;7.22;;;;;;;7.64;100.00;102207.44;5227949;28;20080;-80
2023/10/16 07:26:26;;;;;;;12.13;7.20;;;;;;;7.54;100.00;102192.91;5241579;28;20136;-80
2023/10/16 07:28:58;;;;;;;11.10;7.10;;;;;;;7.63;100.00;102206.56;5221241;28;20868;-78
2023/10/16 07:31:29;;;;;;;12.40;7.50;;;;;;;7.76;100.00;102216.69;5238974;28;20029;-78
2023/10/16 07:34:04;;;;;;;11.80;7.10;;;;;;;7.72;100.00;102210.69;5222801;28;20036;-78
2023/10/16 07:36:35;;;;;;;18.08;7.60;;;;;;;7.74;100.00;102214.13;5223175;28;20024;-78
2023/10/16 07:39:07;;;;;;;9.13;7.73;;;;;;;7.78;100.00;102208.81;5237249;28;20037;-78
2023/10/16 07:41:38;;;;;;;13.33;8.37;;;;;;;7.92;100.00;102213.69;5222003;28;20026;-78
2023/10/16 07:44:09;;;;;;;11.10;8.20;;;;;;;7.73;100.00;102180.28;5225804;28;20468;-78
2023/10/16 07:46:41;;;;;;;10.87;7.47;;;;;;;8.07;100.00;102199.34;5238853;28;20026;-78
2023/10/16 07:49:15;;;;;;;11.87;8.43;;;;;;;8.07;100.00;102204.56;5223324;28;20037;-78
2023/10/16 07:51:47;;;;;;;12.70;7.15;;;;;;;8.26;100.00;102204.94;5222480;28;20025;-79
2023/10/16 07:54:22;;;;;;;9.43;7.00;;;;;;;8.38;100.00;102213.31;5219881;28;20045;-79
2023/10/16 07:56:53;;;;;;;10.15;7.47;;;;;;;8.43;100.00;102203.59;5221431;28;20224;-78
2023/10/16 07:59:25;;;;;;;14.03;7.67;;;;;;;8.49;100.00;102200.81;5237061;28;20025;-79
2023/10/16 08:01:57;;;;;;;13.07;7.33;;;;;;;8.65;100.00;102216.06;5221588;28;20033;-78
2023/10/16 08:04:35;;;;;;;12.80;7.40;;;;;;;8.65;100.00;102206.47;5219940;28;20484;-79
2023/10/16 08:07:16;;;;;;;14.33;6.97;;;;;;;8.65;100.00;102192.53;5235708;28;20053;-78
2023/10/16 08:09:57;;;;;;;10.83;6.53;;;;;;;8.80;100.00;102209.50;5222937;28;20084;-78
2023/10/16 08:15:14;;;;;;;9.97;6.93;;;;;;;9.04;100.00;102217.50;5221461;28;20068;-78
2023/10/16 08:17:46;;;;;;;10.87;6.20;;;;;;;9.24;100.00;102213.41;5221405;28;20083;-78
2023/10/16 08:20:17;;;;;;;8.33;6.27;;;;;;;9.26;100.00;102207.22;5221775;28;20489;-80
2023/10/16 08:22:50;;;;;;;13.63;6.27;;;;;;;9.44;100.00;102200.53;5221636;28;20029;-79
2023/10/16 08:25:30;;;;;;;11.27;6.23;;;;;;;9.52;100.00;102212.50;5221495;28;20078;-79
2023/10/16 08:28:20;;;;;;;11.17;6.33;;;;;;;9.43;100.00;102188.38;5236896;28;20044;-79
2023/10/16 08:30:54;;;;;;;10.13;5.67;;;;;;;9.50;100.00;102204.69;5222404;28;20567;-79
2023/10/16 08:33:31;;;;;;;11.90;5.65;;;;;;;9.66;100.00;102212.03;5223595;28;20120;-79
2023/10/16 08:36:07;;;;;;;10.73;6.07;;;;;;;9.65;100.00;102202.50;5235943;28;20064;-77
2023/10/16 08:38:44;;;;;;;9.13;6.30;;;;;;;9.78;100.00;102202.91;5219445;28;20033;-79
2023/10/16 08:41:16;;;;;;;8.60;6.23;;;;;;;9.79;100.00;102184.53;5223298;28;20010;-78
2023/10/16 08:43:53;;;;;;;12.47;5.97;;;;;;;9.88;100.00;102193.81;5221514;28;20112;-77
2023/10/16 08:46:30;;;;;;;6.67;5.70;;;;;;;10.08;100.00;102201.88;5222340;28;20802;-77
2023/10/16 08:49:03;;;;;;;7.00;5.30;;;;;;;11.07;100.00;102205.19;5221627;28;20083;-79
2023/10/16 08:51:34;;;;;;;11.37;6.00;;;;;;;12.28;100.00;102208.91;5220018;28;21490;-80
2023/10/16 08:54:35;;;;;;;5.30;4.10;;;;;;;13.21;100.00;102187.06;5216282;28;20115;-80
2023/10/16 08:56:57;;;;;;;7.07;4.60;;;;;;;14.36;100.00;102196.16;5218726;28;20037;-80
2023/10/16 08:59:30;;;;;;;7.10;3.67;;;;;;;15.58;100.00;102199.91;5220015;28;20029;-80
2023/10/16 09:02:06;;;;;;;6.53;4.00;;;;;;;16.63;100.00;102214.72;5220003;28;20029;-81
2023/10/16 09:04:41;;;;;;;11.10;4.97;;;;;;;17.39;100.00;102198.34;5219461;28;20069;-78
2023/10/16 09:07:12;;;;;;;;;;;;;;;19.31;100.00;102213.19;5216883;28;20077;-79
2023/10/16 09:09:48;;;;;;;8.27;3.20;;;;;;;18.69;98.62;102191.19;5219915;28;20082;-78
2023/10/16 09:12:37;;;;;;;7.50;3.80;;;;;;;18.79;84.74;102201.97;5220871;28;20025;-79
2023/10/16 09:15:09;;;;;;;6.00;3.40;;;;;;;18.51;86.34;102199.53;5219839;28;20824;-78
2023/10/16 09:17:40;;;;;;;7.83;4.20;;;;;;;19.07;84.25;102208.75;5225065;28;20386;-78
2023/10/16 09:20:18;;;;;;;4.77;2.80;;;;;;;19.02;71.12;102202.94;5226098;28;20027;-77
2023/10/16 09:22:50;;;;;;;8.10;3.20;;;;;;;18.85;74.43;102212.97;5225509;28;20032;-78
2023/10/16 09:25:23;;;;;;;5.07;2.87;;;;;;;19.28;72.46;102213.44;5226265;28;20575;-79
2023/10/16 09:27:54;;;;;;;5.53;3.07;;;;;;;19.74;66.14;102197.56;5242044;28;20108;-80
2023/10/16 09:30:28;;;;;;;5.77;2.80;;;;;;;19.30;64.09;102195.56;5235290;28;20061;-80
2023/10/16 09:33:03;;;;;;;5.68;2.70;;;;;;;20.06;64.71;102154.34;5231305;28;20712;-79
2023/10/16 09:35:43;;;;;;;6.00;2.92;;;;;;;21.20;53.75;102157.56;5236276;28;20029;-82
2023/10/16 09:38:17;;;;;;;4.70;2.72;;;;;;;22.24;50.15;102176.25;5233406;28;20439;-79
2023/10/16 09:41:37;;;;;;;4.53;2.65;;;;;;;22.99;56.60;102190.97;5227643;28;20041;-80
2023/10/16 09:44:22;;;;;;;4.80;3.05;;;;;;;23.03;56.08;102218.25;5231141;28;20491;-79
2023/10/16 09:49:24;;;;;;;5.20;2.75;;;;;;;22.40;49.45;102175.75;5231806;28;20125;-79
2023/10/16 09:51:59;;;;;;;5.97;2.55;;;;;;;22.13;48.92;102185.25;5227140;28;20025;-79
2023/10/16 09:54:31;;;;;;;3.28;2.00;;;;;;;21.42;46.78;102193.03;5228151;28;20045;-78
2023/10/16 09:57:07;;;;;;;3.78;2.40;;;;;;;20.60;55.18;102193.50;5221106;28;20091;-79
2023/10/16 09:59:39;;;;;;;5.32;2.65;;;;;;;19.98;56.21;102209.06;5239583;28;20043;-79
2023/10/16 10:02:17;;;;;;;5.13;2.03;;;;;;;19.87;57.51;102196.59;5229775;28;20025;-79
2023/10/16 10:04:54;;;;;;;4.47;1.77;;;;;;;18.98;59.17;102206.75;5229197;28;20464;-79
2023/10/16 10:07:38;;;;;;;6.30;2.13;;;;;;;18.74;60.21;102205.81;5243905;28;20049;-78
2023/10/16 10:13:15;;;;;;;5.50;1.90;;;;;;;18.69;65.37;102188.53;5228740;28;20030;-79
2023/10/16 10:15:49;;;;;;;3.60;2.30;;;;;;;18.52;64.04;102174.69;5229976;28;20033;-79
2023/10/16 10:18:42;;;;;;;4.17;1.70;;;;;;;18.50;67.38;102209.28;5228724;28;20017;-79
2023/10/16 10:21:28;;;;;;;18.07;3.93;;;;;;;18.20;67.29;102180.53;5230498;28;20600;-79
2023/10/16 10:24:03;;;;;;;4.50;1.70;;;;;;;18.16;70.59;102195.81;5230106;28;20105;-79
2023/10/16 10:26:35;;;;;;;5.23;2.10;;;;;;;17.81;67.67;102149.59;5229152;28;20029;-79
2023/10/16 10:29:11;;;;;;;5.13;1.80;;;;;;;17.50;70.86;102188.81;5230893;28;20093;-79
2023/10/16 10:31:45;;;;;;;6.80;2.00;;;;;;;17.29;77.54;102198.13;5230942;28;20363;-79
2023/10/16 10:34:22;;;;;;;3.97;1.75;;;;;;;16.86;76.00;102177.94;5229355;28;20082;-78
2023/10/16 10:36:54;;;;;;;4.23;1.57;;;;;;;16.62;73.72;102178.59;5229551;28;20413;-79
2023/10/16 10:42:03;;;;;;;4.70;1.50;;;;;;;16.46;80.07;102162.88;5230359;28;20052;-79
2023/10/16 10:44:37;;;;;;;4.45;1.52;;;;;;;16.73;70.70;102198.22;5229762;28;20441;-79
2023/10/16 10:47:18;;;;;;;3.17;1.50;;;;;;;16.84;71.95;102182.53;5229951;28;20083;-79
2023/10/16 10:49:51;;;;;;;3.67;1.33;;;;;;;16.59;77.49;102194.69;5229762;28;20029;-79
2023/10/16 10:52:25;;;;;;;4.73;0.83;;;;;;;16.51;70.01;102149.38;5244264;28;20060;-79
2023/10/16 10:54:58;;;;;;;3.03;1.20;;;;;;;16.56;68.00;102128.78;5229530;28;20108;-79
2023/10/16 10:57:29;;;;;;;3.43;1.20;;;;;;;16.52;76.67;102145.78;5229732;28;20033;-79
2023/10/16 11:05:33;;;;;;;2.03;0.83;;;;;;;16.73;68.15;102158.53;5230286;28;20034;-79
2023/10/16 11:10:46;;;;;;;5.87;1.97;;;;;;;16.31;76.89;102146.19;5229831;28;20041;-79
2023/10/16 11:13:21;;;;;;;4.73;1.60;;;;;;;16.00;76.51;102141.06;5229810;28;20017;-79
2023/10/16 11:15:56;;;;;;;3.22;1.10;;;;;;;16.00;83.35;102138.44;5229455;28;20079;-79
2023/10/16 11:18:28;;;;;;;2.87;1.50;;;;;;;15.90;81.79;102129.34;5229317;28;20033;-79
2023/10/16 11:21:04;;;;;;;4.67;1.60;;;;;;;16.11;78.65;102168.63;5227124;28;20210;-80
2023/10/16 11:23:40;;;;;;;4.93;1.30;;;;;;;15.40;71.56;102104.16;5227485;28;20108;-79
2023/10/16 11:26:16;;;;;;;4.97;1.70;;;;;;;16.02;69.51;102117.19;5234481;28;20241;-79
2023/10/16 11:28:51;;;;;;;7.30;1.37;;;;;;;15.57;81.30;102096.97;5251499;28;20030;-79
2023/10/16 11:31:24;;;;;;;3.00;0.90;;;;;;;15.70;80.47;102112.94;5235264;28;20033;-79
2023/10/16 11:34:04;;;;;;;4.30;1.43;;;;;;;15.80;71.30;102119.34;5246430;28;20432;-79
2023/10/16 11:36:36;;;;;;;6.03;1.30;;;;;;;16.12;69.44;102104.22;5231368;28;20033;-79
2023/10/16 11:39:07;;;;;;;4.67;1.40;;;;;;;16.20;64.87;102102.81;5230174;28;20436;-79
2023/10/16 11:41:40;;;;;;;5.73;1.70;;;;;;;15.73;69.10;102092.47;5229886;28;20120;-79
2023/10/16 11:44:16;;;;;;;7.00;1.73;;;;;;;15.82;74.16;102114.81;5229168;28;20108;-79
2023/10/16 11:46:52;;;;;;;5.83;1.50;;;;;;;15.78;66.07;102109.84;5243986;28;20029;-79
2023/10/16 11:49:29;;;;;;;4.23;1.40;;;;;;;15.45;70.65;102088.03;5229216;28;20151;-80
2023/10/16 11:52:19;;;;;;;2.80;1.30;;;;;;;15.78;75.46;102113.31;5226920;28;20113;-80
2023/10/16 11:54:56;;;;;;;3.03;1.40;;;;;;;15.76;77.16;102111.72;5228835;28;20029;-79
2023/10/16 11:57:29;;;;;;;2.93;1.47;;;;;;;16.01;77.42;102121.63;5228289;28;20309;-79
2023/10/16 12:00:15;;;;;;;3.25;1.30;;;;;;;16.21;72.52;102104.50;5228813;28;20059;-79
2023/10/16 12:02:49;;;;;;;3.57;1.40;;;;;;;15.80;70.02;102098.22;5229045;28;20068;-79
2023/10/16 12:05:21;;;;;;;5.57;1.50;;;;;;;15.78;76.55;102093.97;5228197;28;20025;-80
2023/10/16 12:07:52;;;;;;;4.27;1.07;;;;;;;15.62;73.35;102078.22;5226222;28;20044;-79
2023/10/16 12:10:28;;;;;;;5.83;1.10;;;;;;;15.55;69.85;102052.19;5228556;28;20080;-79
2023/10/16 12:13:01;;;;;;;4.60;1.00;;;;;;;15.65;75.74;102078.91;5227396;28;20069;-79
2023/10/16 12:15:33;;;;;;;3.43;1.60;;;;;;;15.73;76.89;102073.13;5243475;28;20326;-78
2023/10/16 12:18:09;;;;;;;3.83;1.10;;;;;;;15.96;68.43;102084.91;5227715;28;20221;-79
2023/10/16 12:20:41;;;;;;;4.37;1.10;;;;;;;15.91;72.08;102081.69;5228826;28;20404;-79
2023/10/16 12:23:12;;;;;;;2.33;0.80;;;;;;;15.63;69.72;102035.88;5242064;28;20029;-79
2023/10/16 12:25:45;;;;;;;4.27;1.20;;;;;;;16.44;64.42;102106.63;5228691;28;20029;-79
2023/10/16 12:28:17;;;;;;;3.57;1.20;;;;;;;16.04;67.38;102071.22;5227667;28;20033;-78
2023/10/16 12:30:48;;;;;;;4.53;1.30;;;;;;;16.17;65.17;102089.78;5227911;28;20806;-78
2023/10/16 12:33:20;;;;;;;3.10;1.03;;;;;;;16.01;68.95;102070.56;5228081;28;20021;-78
2023/10/16 12:35:55;;;;;;;3.10;1.20;;;;;;;16.13;72.32;102096.22;5228249;28;20485;-79
2023/10/16 12:38:26;;;;;;;4.03;1.20;;;;;;;15.84;74.35;102062.75;5226028;28;20029;-79
2023/10/16 12:40:59;;;;;;;2.77;1.00;;;;;;;16.11;74.69;102078.78;5227992;28;20091;-79
2023/10/16 12:43:30;;;;;;;3.63;1.10;;;;;;;15.48;76.58;102027.97;5226596;28;20040;-79
2023/10/16 12:46:02;;;;;;;3.50;0.90;;;;;;;15.79;76.84;102034.91;5227275;28;20274;-79
2023/10/16 12:48:37;;;;;;;6.50;1.27;;;;;;;15.70;76.00;102055.69;5243438;28;20045;-79
2023/10/16 12:51:10;;;;;;;3.93;1.23;;;;;;;15.69;74.77;102032.03;5230861;28;20045;-79
2023/10/16 12:53:41;;;;;;;4.60;1.67;;;;;;;15.63;66.50;102022.69;5247303;28;20055;-79
2023/10/16 12:56:16;;;;;;;6.50;1.40;;;;;;;16.14;67.54;102068.84;5230921;28;20116;-79
2023/10/16 12:58:47;;;;;;;4.20;0.80;;;;;;;15.99;73.06;102086.50;5232744;28;20207;-79
2023/10/16 13:01:21;;;;;;;2.93;1.20;;;;;;;16.12;76.34;102065.44;5232100;28;20500;-79
2023/10/16 13:03:59;;;;;;;6.30;1.60;;;;;;;16.06;73.14;102084.31;5231711;28;20108;-79
2023/10/16 13:06:31;;;;;;;5.13;1.60;;;;;;;15.57;70.49;102018.63;5230909;28;20079;-79
2023/10/16 13:09:02;;;;;;;2.73;1.47;;;;;;;15.82;76.41;102040.00;5231464;28;20053;-79
2023/10/16 13:11:34;;;;;;;3.73;1.77;;;;;;;15.37;73.19;102025.16;5247583;28;20268;-79
2023/10/16 13:14:05;;;;;;;6.80;1.43;;;;;;;15.75;79.16;102051.91;5246729;28;20025;-80
2023/10/16 13:16:37;;;;;;;8.53;2.43;;;;;;;15.76;72.87;102037.75;5232014;28;20021;-80
2023/10/16 13:19:11;;;;;;;3.73;1.80;;;;;;;15.36;75.02;102055.13;5246836;28;20021;-80
2023/10/16 13:21:43;;;;;;;4.55;1.60;;;;;;;15.16;81.43;102016.75;5230760;28;20052;-79
2023/10/16 13:24:19;;;;;;;6.23;1.90;;;;;;;15.51;83.80;102071.81;5247340;28;20093;-79
2023/10/16 13:26:52;;;;;;;2.53;1.33;;;;;;;15.71;71.12;102052.09;5231199;28;20303;-79
2023/10/16 13:29:23;;;;;;;3.60;1.63;;;;;;;15.27;73.17;102022.25;5230527;28;20057;-79
2023/10/16 13:32:00;;;;;;;2.83;1.37;;;;;;;15.38;77.92;102060.31;5231087;28;20288;-79
2023/10/16 13:34:32;;;;;;;2.87;1.67;;;;;;;15.28;76.00;102041.53;5231721;28;20437;-79
2023/10/16 13:37:10;;;;;;;3.03;1.27;;;;;;;15.12;68.75;102000.25;5245522;28;20053;-79
2023/10/16 13:39:43;;;;;;;3.57;1.83;;;;;;;15.29;72.47;102036.16;5232260;28;20461;-79
2023/10/16 13:42:14;;;;;;;3.60;1.80;;;;;;;15.29;77.21;102024.78;5230922;28;20476;-79
2023/10/16 13:44:46;;;;;;;5.67;1.97;;;;;;;15.22;77.12;102033.06;5231220;28;20025;-79
2023/10/16 13:47:18;;;;;;;5.47;1.50;;;;;;;15.30;72.96;102015.91;5230463;28;20102;-79
2023/10/16 13:49:50;;;;;;;3.63;1.80;;;;;;;15.24;76.58;102028.53;5231744;28;20096;-79
2023/10/16 13:52:22;;;;;;;4.60;1.73;;;;;;;15.58;70.07;102024.75;5245702;28;20036;-79
2023/10/16 13:54:54;;;;;;;4.93;1.63;;;;;;;15.44;75.97;102017.69;5230741;28;20337;-79
2023/10/16 13:57:28;;;;;;;4.20;1.53;;;;;;;15.40;75.54;102017.03;5230972;28;20118;-79
2023/10/16 14:00:02;;;;;;;7.38;2.55;;;;;;;15.23;75.39;102000.47;5230663;28;20995;-79
2023/10/16 14:02:36;;;;;;;5.63;1.93;;;;;;;15.22;72.62;102022.50;5230310;28;20266;-80
2023/10/16 14:05:07;;;;;;;7.68;2.15;;;;;;;15.28;72.28;102025.72;5230282;28;20028;-79